createdAt,value
2023-06-30T00:00:34.545Z,23.87
2023-06-30T00:01:34.615Z,24.49
2023-06-30T00:02:34.642Z,25.03
2023-06-30T00:03:34.740Z,24.90
2023-06-30T00:04:34.669Z,24.95
2023-06-30T00:05:34.628Z,24.86
2023-06-30T00:06:34.627Z,24.98
2023-06-30T00:07:34.732Z,24.47
2023-06-30T00:08:34.668Z,24.38
2023-06-30T00:09:34.704Z,24.33
2023-06-30T00:10:34.703Z,23.95
2023-06-30T00:11:34.734Z,23.69
2023-06-30T00:12:34.857Z,24.32
2023-06-30T00:13:34.789Z,24.43
2023-06-30T00:14:34.783Z,24.42
2023-06-30T00:15:34.849Z,24.63
2023-06-30T00:16:34.901Z,24.72
2023-06-30T00:17:34.847Z,24.93
2023-06-30T00:18:34.857Z,25.38
2023-06-30T00:19:34.862Z,25.39
2023-06-30T00:20:35.073Z,25.54
2023-06-30T00:21:34.893Z,25.45
2023-06-30T00:22:34.938Z,25.84
2023-06-30T00:23:34.947Z,26.95
2023-06-30T00:24:34.974Z,26.48
2023-06-30T00:25:34.979Z,26.81
2023-06-30T00:26:35.002Z,27.64
2023-06-30T00:27:35.010Z,27.61
2023-06-30T00:28:35.064Z,28.12
2023-06-30T00:29:35.068Z,28.90
2023-06-30T00:30:35.070Z,29.26
2023-06-30T00:31:35.196Z,29.60
2023-06-30T00:32:35.140Z,30.11
2023-06-30T00:33:35.129Z,29.41
2023-06-30T00:34:35.149Z,30.27
2023-06-30T00:35:35.162Z,30.99
2023-06-30T00:36:35.203Z,31.55
2023-06-30T00:37:35.206Z,31.33
2023-06-30T00:38:35.281Z,32.50
2023-06-30T00:39:35.272Z,32.55
2023-06-30T00:40:35.281Z,32.74
2023-06-30T00:41:35.293Z,32.80
2023-06-30T00:42:35.317Z,32.61
2023-06-30T00:43:35.334Z,33.34
2023-06-30T00:44:35.337Z,33.44
2023-06-30T00:45:35.371Z,33.04
2023-06-30T00:46:35.419Z,33.55
2023-06-30T00:47:35.413Z,32.56
2023-06-30T00:48:35.409Z,33.42
2023-06-30T00:49:35.429Z,33.97
2023-06-30T00:50:35.446Z,33.18
2023-06-30T00:51:35.473Z,33.94
2023-06-30T00:52:35.478Z,34.27
2023-06-30T00:53:35.513Z,35.07
2023-06-30T00:54:35.529Z,35.32
2023-06-30T00:55:35.539Z,34.33
2023-06-30T00:56:35.584Z,34.53
2023-06-30T00:57:35.593Z,35.20
2023-06-30T00:58:35.598Z,35.58
2023-06-30T00:59:35.661Z,35.17
2023-06-30T01:00:35.656Z,35.78
2023-06-30T01:01:35.694Z,35.31
2023-06-30T01:02:35.740Z,34.91
2023-06-30T01:03:35.772Z,35.26
2023-06-30T01:04:35.775Z,34.15
2023-06-30T01:05:35.745Z,34.31
2023-06-30T01:06:35.777Z,33.29
2023-06-30T01:07:35.834Z,34.00
2023-06-30T01:08:35.825Z,33.65
2023-06-30T01:09:35.852Z,33.20
2023-06-30T01:10:35.880Z,33.09
2023-06-30T01:11:35.890Z,33.53
2023-06-30T01:12:35.961Z,33.64
2023-06-30T01:13:35.947Z,33.07
2023-06-30T01:14:35.972Z,33.77
2023-06-30T01:15:36.009Z,34.18
2023-06-30T01:16:36.087Z,34.95
2023-06-30T01:17:36.056Z,34.14
2023-06-30T01:18:36.066Z,34.29
2023-06-30T01:19:36.109Z,34.50
2023-06-30T01:20:36.118Z,34.72
2023-06-30T01:21:36.150Z,34.85
2023-06-30T01:22:36.152Z,35.69
2023-06-30T01:23:36.192Z,35.19
2023-06-30T01:24:36.231Z,35.60
2023-06-30T01:25:36.287Z,35.61
2023-06-30T01:26:36.261Z,35.99
2023-06-30T01:27:36.302Z,37.02
2023-06-30T01:28:36.381Z,36.83
2023-06-30T01:29:36.348Z,35.16
2023-06-30T01:30:36.384Z,35.85
2023-06-30T01:31:36.411Z,35.94
2023-06-30T01:32:36.449Z,35.74
2023-06-30T01:33:36.478Z,35.80
2023-06-30T01:34:36.482Z,35.23
2023-06-30T01:35:36.551Z,34.66
2023-06-30T01:36:36.534Z,35.30
2023-06-30T01:37:36.587Z,34.74
2023-06-30T01:38:36.592Z,35.08
2023-06-30T01:39:36.627Z,34.92
2023-06-30T01:40:36.654Z,35.23
2023-06-30T01:41:36.696Z,35.20
2023-06-30T01:42:36.714Z,34.58
2023-06-30T01:43:36.751Z,35.09
2023-06-30T01:44:36.803Z,35.06
2023-06-30T01:45:36.837Z,35.33
2023-06-30T01:46:36.917Z,35.21
2023-06-30T01:47:36.917Z,35.14
2023-06-30T01:48:36.923Z,35.09
2023-06-30T01:49:36.964Z,35.55
2023-06-30T01:50:36.979Z,35.38
2023-06-30T01:51:37.044Z,35.73
2023-06-30T01:52:37.071Z,35.40
2023-06-30T01:53:37.071Z,35.31
2023-06-30T01:54:37.103Z,35.26
2023-06-30T01:55:37.171Z,36.66
2023-06-30T01:56:37.186Z,35.66
2023-06-30T01:57:37.183Z,36.23
2023-06-30T01:58:37.241Z,35.26
2023-06-30T01:59:37.274Z,35.61
2023-06-30T02:00:37.272Z,35.57
2023-06-30T02:01:37.395Z,36.01
2023-06-30T02:02:37.410Z,35.30
2023-06-30T02:03:37.398Z,35.43
2023-06-30T02:04:37.420Z,35.04
2023-06-30T02:05:37.438Z,34.88
2023-06-30T02:06:37.486Z,34.41
2023-06-30T02:07:37.566Z,34.23
2023-06-30T02:08:37.550Z,34.94
2023-06-30T02:09:48.147Z,35.11
2023-06-30T02:10:38.563Z,35.12
2023-06-30T02:11:37.573Z,34.51
2023-06-30T02:12:37.569Z,34.72
2023-06-30T02:13:37.532Z,35.06
2023-06-30T02:14:37.553Z,34.77
2023-06-30T02:15:37.568Z,34.98
2023-06-30T02:16:37.591Z,35.81
2023-06-30T02:17:37.543Z,35.36
2023-06-30T02:18:37.497Z,36.15
2023-06-30T02:19:37.499Z,36.10
2023-06-30T02:20:37.504Z,35.51
2023-06-30T02:21:37.491Z,36.31
2023-06-30T02:22:37.501Z,36.29
2023-06-30T02:23:37.477Z,36.63
2023-06-30T02:24:37.447Z,37.77
2023-06-30T02:25:37.445Z,36.93
2023-06-30T02:26:37.470Z,38.21
2023-06-30T02:27:37.533Z,37.45
2023-06-30T02:28:37.561Z,37.54
2023-06-30T02:29:37.592Z,38.28
2023-06-30T02:30:37.608Z,38.42
2023-06-30T02:31:37.672Z,38.25
2023-06-30T02:32:37.717Z,38.00
2023-06-30T02:33:37.730Z,38.28
2023-06-30T02:34:37.778Z,37.83
2023-06-30T02:35:37.846Z,38.00
2023-06-30T02:36:37.829Z,39.15
2023-06-30T02:37:37.869Z,38.89
2023-06-30T02:38:37.874Z,39.49
2023-06-30T02:39:37.917Z,38.66
2023-06-30T02:40:37.971Z,39.00
2023-06-30T02:41:38.006Z,38.44
2023-06-30T02:42:38.032Z,38.40
2023-06-30T02:43:38.056Z,38.63
2023-06-30T02:44:38.115Z,38.36
2023-06-30T02:45:38.177Z,38.95
2023-06-30T02:46:38.187Z,38.39
2023-06-30T02:47:38.244Z,38.02
2023-06-30T02:48:38.243Z,39.38
2023-06-30T02:49:38.280Z,39.07
2023-06-30T02:50:38.328Z,38.64
2023-06-30T02:51:38.351Z,40.05
2023-06-30T02:52:38.388Z,40.37
2023-06-30T02:53:38.446Z,41.05
2023-06-30T02:54:38.459Z,40.37
2023-06-30T02:55:39.371Z,41.28
2023-06-30T02:56:38.538Z,40.95
2023-06-30T02:57:38.631Z,40.79
2023-06-30T02:58:38.657Z,41.45
2023-06-30T02:59:38.650Z,41.62
2023-06-30T03:00:38.714Z,40.31
2023-06-30T03:01:38.837Z,40.14
2023-06-30T03:02:39.014Z,41.11
2023-06-30T03:03:38.871Z,40.27
2023-06-30T03:04:38.852Z,40.58
2023-06-30T03:05:38.899Z,40.90
2023-06-30T03:06:38.938Z,40.56
2023-06-30T03:07:39.010Z,40.80
2023-06-30T03:08:39.013Z,40.32
2023-06-30T03:09:39.037Z,40.16
2023-06-30T03:10:39.092Z,40.14
2023-06-30T03:11:39.132Z,39.57
2023-06-30T03:12:39.152Z,40.10
2023-06-30T03:13:39.217Z,39.08
2023-06-30T03:14:39.230Z,39.86
2023-06-30T03:15:39.253Z,39.49
2023-06-30T03:16:39.324Z,38.94
2023-06-30T03:17:39.369Z,39.22
2023-06-30T03:18:39.366Z,39.65
2023-06-30T03:19:39.383Z,39.55
2023-06-30T03:20:39.448Z,38.97
2023-06-30T03:21:39.464Z,38.89
2023-06-30T03:22:39.492Z,39.71
2023-06-30T03:23:39.522Z,39.20
2023-06-30T03:24:39.543Z,39.13
2023-06-30T03:25:39.594Z,38.92
2023-06-30T03:26:39.656Z,39.41
2023-06-30T03:27:39.670Z,39.48
2023-06-30T03:28:39.681Z,39.52
2023-06-30T03:29:39.718Z,38.99
2023-06-30T03:30:39.808Z,39.39
2023-06-30T03:31:39.816Z,39.39
2023-06-30T03:32:39.919Z,38.61
2023-06-30T03:33:39.849Z,39.75
2023-06-30T03:34:39.927Z,39.67
2023-06-30T03:35:39.932Z,39.73
2023-06-30T03:36:39.971Z,39.59
2023-06-30T03:37:40.019Z,38.61
2023-06-30T03:38:40.016Z,39.53
2023-06-30T03:39:40.066Z,39.30
2023-06-30T03:40:40.131Z,39.68
2023-06-30T03:41:40.129Z,39.59
2023-06-30T03:42:40.171Z,39.53
2023-06-30T03:43:40.202Z,38.98
2023-06-30T03:44:40.260Z,38.70
2023-06-30T03:45:40.276Z,38.81
2023-06-30T03:46:40.318Z,39.52
2023-06-30T03:47:40.352Z,38.92
2023-06-30T03:48:40.364Z,39.20
2023-06-30T03:49:40.412Z,38.92
2023-06-30T03:50:40.446Z,38.61
2023-06-30T03:51:40.490Z,39.02
2023-06-30T03:52:40.528Z,38.19
2023-06-30T03:53:40.571Z,38.62
2023-06-30T03:54:40.608Z,38.18
2023-06-30T03:55:40.652Z,37.44
2023-06-30T03:56:40.686Z,37.34
2023-06-30T03:57:40.714Z,36.94
2023-06-30T03:58:40.763Z,37.13
2023-06-30T03:59:40.830Z,36.65
2023-06-30T04:00:40.869Z,37.01
2023-06-30T04:01:40.892Z,36.99
2023-06-30T04:02:41.151Z,36.06
2023-06-30T04:03:41.131Z,36.84
2023-06-30T04:04:41.067Z,36.34
2023-06-30T04:05:41.039Z,36.86
2023-06-30T04:06:41.076Z,36.36
2023-06-30T04:07:41.163Z,36.78
2023-06-30T04:08:41.164Z,36.31
2023-06-30T04:09:41.204Z,36.72
2023-06-30T04:10:41.227Z,36.07
2023-06-30T04:11:41.272Z,36.02
2023-06-30T04:12:41.329Z,35.47
2023-06-30T04:13:41.343Z,36.13
2023-06-30T04:14:41.386Z,35.81
2023-06-30T04:15:41.418Z,35.70
2023-06-30T04:16:41.505Z,35.37
2023-06-30T04:17:41.561Z,34.83
2023-06-30T04:18:41.548Z,35.45
2023-06-30T04:19:41.595Z,34.97
2023-06-30T04:20:41.637Z,34.68
2023-06-30T04:21:41.659Z,34.99
2023-06-30T04:22:41.714Z,35.22
2023-06-30T04:23:41.753Z,34.22
2023-06-30T04:24:41.802Z,34.49
2023-06-30T04:25:41.851Z,33.42
2023-06-30T04:26:41.882Z,33.77
2023-06-30T04:27:41.908Z,33.31
2023-06-30T04:28:41.966Z,33.56
2023-06-30T04:29:41.997Z,32.96
2023-06-30T04:30:42.029Z,32.72
2023-06-30T04:31:42.121Z,32.92
2023-06-30T04:32:42.147Z,32.67
2023-06-30T04:33:42.172Z,32.43
2023-06-30T04:34:42.193Z,32.92
2023-06-30T04:35:42.363Z,32.64
2023-06-30T04:36:42.293Z,32.25
2023-06-30T04:37:42.343Z,32.11
2023-06-30T04:38:42.431Z,32.19
2023-06-30T04:39:42.430Z,32.58
2023-06-30T04:40:42.479Z,32.60
2023-06-30T04:41:42.518Z,32.92
2023-06-30T04:42:42.539Z,32.96
2023-06-30T04:43:42.581Z,32.42
2023-06-30T04:44:42.636Z,32.46
2023-06-30T04:45:42.927Z,32.47
2023-06-30T04:46:42.820Z,31.77
2023-06-30T04:47:42.792Z,31.47
2023-06-30T04:48:42.811Z,31.88
2023-06-30T04:49:42.847Z,31.18
2023-06-30T04:50:42.932Z,30.28
2023-06-30T04:51:42.939Z,31.05
2023-06-30T04:52:43.005Z,31.23
2023-06-30T04:53:43.037Z,30.75
2023-06-30T04:54:43.068Z,30.46
2023-06-30T04:55:43.277Z,30.21
2023-06-30T04:56:43.157Z,30.60
2023-06-30T04:57:43.203Z,29.84
2023-06-30T04:58:43.237Z,29.82
2023-06-30T04:59:43.307Z,28.98
2023-06-30T05:00:43.315Z,30.08
2023-06-30T05:01:43.380Z,30.72
2023-06-30T05:02:43.432Z,29.83
2023-06-30T05:03:43.497Z,29.69
2023-06-30T05:04:43.482Z,29.79
2023-06-30T05:05:43.828Z,29.37
2023-06-30T05:06:43.593Z,29.07
2023-06-30T05:07:43.671Z,28.71
2023-06-30T05:08:43.652Z,28.30
2023-06-30T05:09:43.706Z,28.94
2023-06-30T05:10:43.752Z,27.88
2023-06-30T05:11:43.785Z,27.07
2023-06-30T05:12:43.851Z,22.33
2023-06-30T05:13:43.890Z,19.96
2023-06-30T05:14:43.937Z,17.60
2023-06-30T05:15:44.273Z,16.55
2023-06-30T05:16:43.988Z,16.04
2023-06-30T05:17:44.033Z,16.35
2023-06-30T05:18:44.020Z,16.75
2023-06-30T05:19:44.074Z,16.82
2023-06-30T05:20:44.183Z,16.68
2023-06-30T05:21:44.171Z,16.52
2023-06-30T05:22:44.245Z,16.32
2023-06-30T05:23:44.327Z,16.14
2023-06-30T05:24:44.280Z,16.78
2023-06-30T05:25:44.534Z,16.79
2023-06-30T05:26:44.433Z,16.72
2023-06-30T05:27:44.523Z,16.75
2023-06-30T05:28:52.711Z,16.38
2023-06-30T05:29:45.508Z,16.43
2023-06-30T05:30:44.516Z,16.62
2023-06-30T05:31:44.542Z,17.31
2023-06-30T05:32:44.534Z,19.05
2023-06-30T05:33:44.511Z,21.06
2023-06-30T05:34:44.551Z,21.08
2023-06-30T05:35:44.699Z,19.92
2023-06-30T05:36:44.488Z,20.57
2023-06-30T05:37:44.466Z,25.75
2023-06-30T05:38:44.520Z,28.53
2023-06-30T05:39:44.433Z,33.04
2023-06-30T05:40:44.429Z,32.83
2023-06-30T05:41:44.447Z,33.52
2023-06-30T05:42:44.497Z,36.50
2023-06-30T05:43:44.537Z,34.39
2023-06-30T05:44:45.493Z,34.18
2023-06-30T05:45:44.752Z,37.35
2023-06-30T05:46:44.603Z,39.67
2023-06-30T05:47:44.597Z,35.92
2023-06-30T05:48:44.627Z,30.05
2023-06-30T05:49:44.597Z,28.47
2023-06-30T05:50:44.623Z,28.22
2023-06-30T05:51:44.624Z,26.66
2023-06-30T05:52:44.630Z,26.42
2023-06-30T05:53:44.635Z,27.49
2023-06-30T05:54:44.688Z,28.21
2023-06-30T05:55:44.847Z,28.30
2023-06-30T05:56:44.674Z,26.82
2023-06-30T05:57:44.701Z,26.62
2023-06-30T05:58:44.726Z,26.40
2023-06-30T05:59:44.743Z,26.74
2023-06-30T06:00:44.760Z,28.17
2023-06-30T06:01:44.775Z,28.53
2023-06-30T06:02:44.888Z,26.95
2023-06-30T06:03:45.078Z,27.30
2023-06-30T06:04:44.998Z,28.56
2023-06-30T06:05:45.164Z,29.32
2023-06-30T06:06:44.877Z,27.93
2023-06-30T06:07:45.054Z,27.44
2023-06-30T06:08:44.920Z,25.40
2023-06-30T06:09:44.943Z,25.79
2023-06-30T06:10:45.000Z,26.87
2023-06-30T06:11:44.975Z,26.76
2023-06-30T06:12:45.020Z,27.87
2023-06-30T06:13:45.003Z,27.00
2023-06-30T06:14:45.010Z,25.80
2023-06-30T06:15:45.192Z,26.90
2023-06-30T06:16:45.099Z,26.70
2023-06-30T06:17:45.128Z,25.07
2023-06-30T06:18:46.550Z,25.35
2023-06-30T06:19:45.132Z,24.97
2023-06-30T06:20:45.126Z,24.92
2023-06-30T06:21:45.106Z,24.87
2023-06-30T06:22:45.097Z,24.32
2023-06-30T06:23:45.083Z,25.95
2023-06-30T06:24:45.104Z,26.85
2023-06-30T06:25:45.612Z,27.89
2023-06-30T06:26:45.098Z,29.93
2023-06-30T06:27:45.061Z,29.93
2023-06-30T06:28:45.058Z,30.27
2023-06-30T06:29:45.050Z,27.98
2023-06-30T06:30:45.523Z,28.75
2023-06-30T06:31:45.050Z,27.30
2023-06-30T06:32:45.108Z,25.33
2023-06-30T06:33:45.008Z,23.08
2023-06-30T06:34:45.006Z,21.35
2023-06-30T06:35:45.219Z,20.34
2023-06-30T06:36:45.010Z,19.11
2023-06-30T06:37:45.010Z,16.59
2023-06-30T06:38:44.988Z,16.90
2023-06-30T06:39:44.975Z,17.96
2023-06-30T06:40:44.973Z,19.70
2023-06-30T06:41:44.959Z,21.57
2023-06-30T06:42:44.973Z,21.80
2023-06-30T06:43:44.988Z,21.43
2023-06-30T06:44:44.952Z,20.07
2023-06-30T06:45:45.260Z,19.42
2023-06-30T06:46:45.086Z,19.52
2023-06-30T06:47:45.019Z,18.57
2023-06-30T06:48:44.967Z,18.75
2023-06-30T06:49:47.006Z,19.72
2023-06-30T06:50:44.995Z,20.44
2023-06-30T06:51:44.930Z,22.13
2023-06-30T06:52:44.892Z,21.43
2023-06-30T06:53:44.885Z,20.65
2023-06-30T06:54:44.895Z,20.76
2023-06-30T06:55:45.316Z,21.63
2023-06-30T06:56:44.859Z,20.44
2023-06-30T06:57:44.871Z,19.52
2023-06-30T06:58:44.877Z,18.92
2023-06-30T06:59:44.908Z,17.11
2023-06-30T07:00:44.943Z,16.77
2023-06-30T07:01:44.993Z,16.49
2023-06-30T07:02:45.050Z,16.44
2023-06-30T07:03:45.080Z,16.52
2023-06-30T07:04:45.128Z,15.64
2023-06-30T07:05:45.550Z,15.42
2023-06-30T07:06:45.219Z,16.18
2023-06-30T07:07:45.353Z,15.70
2023-06-30T07:08:45.333Z,15.33
2023-06-30T07:09:45.416Z,15.19
2023-06-30T07:10:45.457Z,15.04
2023-06-30T07:11:45.502Z,15.28
2023-06-30T07:12:45.569Z,14.76
2023-06-30T07:13:45.648Z,15.50
2023-06-30T07:14:47.934Z,14.64
2023-06-30T07:15:45.915Z,15.52
2023-06-30T07:16:45.727Z,15.38
2023-06-30T07:17:45.767Z,15.21
2023-06-30T07:18:45.764Z,15.06
2023-06-30T07:19:45.662Z,15.38
2023-06-30T07:20:45.653Z,17.35
2023-06-30T07:21:45.640Z,18.46
2023-06-30T07:22:45.618Z,17.50
2023-06-30T07:23:45.632Z,16.02
2023-06-30T07:24:45.647Z,13.87
2023-06-30T07:25:45.944Z,13.84
2023-06-30T07:26:45.618Z,13.57
2023-06-30T07:27:45.757Z,13.11
2023-06-30T07:28:45.620Z,11.96
2023-06-30T07:29:45.650Z,12.11
2023-06-30T07:30:45.596Z,12.05
2023-06-30T07:31:45.668Z,11.42
2023-06-30T07:32:45.614Z,10.77
2023-06-30T07:33:45.574Z,10.91
2023-06-30T07:34:45.578Z,9.93
2023-06-30T07:35:45.965Z,9.13
2023-06-30T07:36:45.559Z,9.47
2023-06-30T07:37:45.556Z,10.40
2023-06-30T07:38:45.525Z,11.59
2023-06-30T07:39:45.513Z,11.92
2023-06-30T07:40:55.930Z,11.74
2023-06-30T07:41:46.545Z,11.79
2023-06-30T07:42:45.534Z,11.89
2023-06-30T07:43:45.492Z,12.26
2023-06-30T07:44:45.521Z,12.89
2023-06-30T07:45:45.726Z,13.23
2023-06-30T07:46:45.485Z,13.98
2023-06-30T07:47:45.598Z,14.70
2023-06-30T07:48:45.619Z,14.93
2023-06-30T07:49:45.484Z,15.39
2023-06-30T07:50:58.810Z,14.17
2023-06-30T07:51:46.550Z,13.45
2023-06-30T07:52:45.538Z,12.45
2023-06-30T07:53:45.565Z,11.92
2023-06-30T07:54:45.538Z,12.71
2023-06-30T07:55:46.148Z,12.48
2023-06-30T07:56:45.529Z,12.53
2023-06-30T07:57:45.687Z,13.11
2023-06-30T07:58:45.500Z,13.81
2023-06-30T07:59:45.539Z,14.29
2023-06-30T08:00:45.485Z,14.47
2023-06-30T08:01:45.477Z,13.88
2023-06-30T08:02:45.540Z,13.60
2023-06-30T08:03:45.682Z,12.96
2023-06-30T08:04:45.585Z,11.61
2023-06-30T08:05:46.114Z,11.70
2023-06-30T08:06:45.494Z,10.75
2023-06-30T08:07:49.266Z,11.36
2023-06-30T08:08:46.488Z,11.29
2023-06-30T08:09:45.500Z,11.37
2023-06-30T08:10:45.505Z,10.48
2023-06-30T08:11:45.474Z,10.96
2023-06-30T08:12:45.470Z,10.38
2023-06-30T08:13:45.466Z,9.77
2023-06-30T08:14:45.504Z,9.00
2023-06-30T08:15:48.725Z,7.81
2023-06-30T08:16:45.499Z,7.82
2023-06-30T08:17:56.535Z,7.81
2023-06-30T08:18:51.309Z,7.82
2023-06-30T08:19:49.717Z,7.83
2023-06-30T08:20:45.492Z,7.84
2023-06-30T08:21:45.453Z,7.93
2023-06-30T08:22:47.030Z,8.12
2023-06-30T08:23:45.409Z,7.92
2023-06-30T08:24:45.382Z,7.04
2023-06-30T08:25:45.539Z,6.46
2023-06-30T08:26:45.364Z,6.45
2023-06-30T08:27:45.387Z,6.17
2023-06-30T08:28:45.358Z,6.14
2023-06-30T08:29:45.355Z,6.08
2023-06-30T08:30:45.372Z,6.20
2023-06-30T08:31:45.328Z,6.30
2023-06-30T08:32:45.357Z,6.41
2023-06-30T08:33:45.359Z,6.25
2023-06-30T08:34:45.392Z,6.08
2023-06-30T08:35:45.621Z,5.66
2023-06-30T08:36:45.477Z,5.47
2023-06-30T08:37:45.591Z,5.26
2023-06-30T08:38:45.601Z,4.91
2023-06-30T08:39:45.662Z,4.82
2023-06-30T08:40:45.737Z,4.94
2023-06-30T08:41:45.765Z,4.70
2023-06-30T08:42:45.832Z,4.51
2023-06-30T08:43:45.877Z,4.23
2023-06-30T08:44:45.969Z,4.18
2023-06-30T08:45:46.179Z,4.17
2023-06-30T08:46:46.108Z,4.35
2023-06-30T08:47:46.218Z,4.09
2023-06-30T08:48:46.151Z,3.75
2023-06-30T08:49:46.223Z,3.24
2023-06-30T08:50:46.267Z,3.18
2023-06-30T08:51:46.341Z,2.87
2023-06-30T08:52:46.382Z,2.92
2023-06-30T08:53:46.430Z,3.01
2023-06-30T08:54:46.507Z,3.05
2023-06-30T08:55:46.789Z,3.29
2023-06-30T08:56:46.607Z,3.18
2023-06-30T08:57:46.635Z,3.48
2023-06-30T08:58:46.654Z,3.44
2023-06-30T08:59:46.718Z,3.14
2023-06-30T09:00:46.762Z,2.96
2023-06-30T09:01:47.334Z,2.94
2023-06-30T09:02:46.928Z,3.14
2023-06-30T09:03:46.970Z,2.98
2023-06-30T09:04:46.960Z,2.99
2023-06-30T09:05:47.296Z,3.20
2023-06-30T09:06:46.989Z,3.22
2023-06-30T09:07:47.096Z,3.13
2023-06-30T09:08:47.080Z,2.95
2023-06-30T09:09:47.139Z,2.84
2023-06-30T09:10:47.170Z,2.66
2023-06-30T09:11:47.231Z,2.27
2023-06-30T09:12:47.316Z,2.23
2023-06-30T09:13:47.349Z,2.26
2023-06-30T09:14:48.115Z,2.49
2023-06-30T09:15:47.643Z,3.04
2023-06-30T09:16:47.561Z,3.31
2023-06-30T09:17:47.700Z,3.25
2023-06-30T09:18:47.604Z,3.22
2023-06-30T09:19:47.694Z,3.21
2023-06-30T09:20:47.746Z,3.28
2023-06-30T09:21:47.784Z,3.18
2023-06-30T09:22:51.696Z,2.92
2023-06-30T09:23:48.826Z,2.74
2023-06-30T09:24:47.793Z,2.49
2023-06-30T09:25:48.079Z,2.30
2023-06-30T09:26:47.785Z,2.06
2023-06-30T09:27:47.785Z,1.86
2023-06-30T09:28:47.846Z,1.83
2023-06-30T09:29:47.753Z,1.94
2023-06-30T09:30:47.858Z,2.00
2023-06-30T09:31:47.781Z,2.02
2023-06-30T09:32:47.814Z,2.29
2023-06-30T09:33:47.852Z,2.49
2023-06-30T09:34:47.914Z,2.45
2023-06-30T09:35:48.793Z,2.56
2023-06-30T09:36:48.008Z,2.25
2023-06-30T09:37:48.098Z,2.06
2023-06-30T09:38:48.157Z,1.88
2023-06-30T09:39:48.207Z,1.81
2023-06-30T09:40:48.334Z,1.68
2023-06-30T09:41:48.320Z,1.73
2023-06-30T09:42:48.504Z,1.89
2023-06-30T09:43:48.449Z,1.76
2023-06-30T09:44:48.485Z,1.84
2023-06-30T09:45:49.163Z,1.83
2023-06-30T09:46:48.562Z,1.74
2023-06-30T09:47:48.673Z,1.65
2023-06-30T09:48:48.676Z,1.62
2023-06-30T09:49:48.802Z,1.60
2023-06-30T09:50:48.814Z,1.63
2023-06-30T09:51:48.847Z,1.68
2023-06-30T09:52:48.903Z,1.72
2023-06-30T09:53:48.922Z,1.77
2023-06-30T09:54:49.003Z,1.81
2023-06-30T09:55:49.524Z,1.96
2023-06-30T09:56:49.092Z,1.90
2023-06-30T09:57:49.186Z,1.72
2023-06-30T09:58:49.635Z,1.69
2023-06-30T09:59:49.513Z,1.79
2023-06-30T10:00:49.314Z,1.69
2023-06-30T10:01:49.402Z,1.60
2023-06-30T10:02:49.503Z,1.48
2023-06-30T10:03:49.497Z,1.29
2023-06-30T10:04:49.524Z,1.17
2023-06-30T10:06:49.578Z,0.95
2023-06-30T10:07:49.603Z,0.83
2023-06-30T10:08:49.658Z,0.72
2023-06-30T10:09:49.613Z,0.66
2023-06-30T10:10:49.710Z,0.64
2023-06-30T10:11:49.687Z,0.64
2023-06-30T10:12:49.702Z,0.69
2023-06-30T10:13:49.701Z,0.80
2023-06-30T10:14:49.741Z,0.91
2023-06-30T10:15:50.061Z,1.05
2023-06-30T10:16:49.806Z,1.12
2023-06-30T10:17:49.859Z,1.13
2023-06-30T10:18:49.772Z,1.12
2023-06-30T10:19:49.792Z,1.17
2023-06-30T10:20:50.539Z,1.30
2023-06-30T10:21:49.848Z,1.43
2023-06-30T10:22:49.882Z,1.65
2023-06-30T10:23:49.905Z,1.70
2023-06-30T10:24:49.905Z,1.48
2023-06-30T10:25:50.579Z,1.47
2023-06-30T10:26:49.961Z,1.54
2023-06-30T10:27:49.989Z,1.52
2023-06-30T10:28:50.017Z,1.44
2023-06-30T10:29:50.021Z,1.42
2023-06-30T10:30:50.028Z,1.37
2023-06-30T10:31:50.031Z,1.38
2023-06-30T10:32:50.175Z,1.49
2023-06-30T10:33:50.189Z,1.43
2023-06-30T10:34:50.180Z,1.34
2023-06-30T10:35:50.244Z,1.33
2023-06-30T10:36:50.322Z,1.40
2023-06-30T10:37:50.339Z,1.48
2023-06-30T10:38:50.383Z,1.76
2023-06-30T10:39:50.419Z,2.52
2023-06-30T10:40:50.396Z,2.86
2023-06-30T10:41:50.433Z,3.24
2023-06-30T10:42:50.430Z,3.58
2023-06-30T10:43:50.469Z,4.18
2023-06-30T10:44:50.539Z,4.53
2023-06-30T10:45:50.590Z,4.98
2023-06-30T10:46:50.644Z,5.20
2023-06-30T10:47:50.699Z,5.53
2023-06-30T10:48:50.679Z,5.66
2023-06-30T10:49:50.703Z,8.10
2023-06-30T10:50:50.719Z,7.51
2023-06-30T10:51:50.751Z,9.02
2023-06-30T10:52:50.776Z,9.49
2023-06-30T10:53:50.774Z,8.46
2023-06-30T10:54:50.843Z,9.02
2023-06-30T10:55:51.037Z,9.80
2023-06-30T10:56:50.807Z,9.95
2023-06-30T10:57:50.851Z,10.58
2023-06-30T10:58:50.904Z,10.59
2023-06-30T10:59:50.953Z,10.91
2023-06-30T11:00:51.010Z,11.30
2023-06-30T11:01:51.073Z,11.38
2023-06-30T11:02:51.404Z,12.23
2023-06-30T11:03:51.307Z,12.65
2023-06-30T11:04:51.320Z,12.94
2023-06-30T11:05:51.526Z,13.26
2023-06-30T11:06:51.322Z,13.23
2023-06-30T11:07:51.386Z,13.29
2023-06-30T11:08:51.439Z,13.38
2023-06-30T11:09:51.490Z,14.01
2023-06-30T11:10:51.563Z,14.53
2023-06-30T11:11:52.028Z,14.14
2023-06-30T11:12:51.601Z,14.52
2023-06-30T11:13:51.647Z,14.23
2023-06-30T11:14:51.708Z,14.61
2023-06-30T11:15:54.382Z,14.09
2023-06-30T11:16:51.734Z,14.86
2023-06-30T11:17:51.787Z,14.03
2023-06-30T11:18:51.826Z,14.30
2023-06-30T11:19:51.724Z,14.52
2023-06-30T11:20:52.046Z,13.84
2023-06-30T11:21:51.682Z,13.60
2023-06-30T11:22:51.681Z,13.90
2023-06-30T11:23:51.667Z,13.98
2023-06-30T11:24:51.676Z,13.36
2023-06-30T11:25:51.671Z,13.07
2023-06-30T11:26:51.682Z,13.27
2023-06-30T11:27:51.663Z,12.78
2023-06-30T11:28:51.652Z,12.27
2023-06-30T11:29:51.809Z,12.10
2023-06-30T11:30:51.651Z,12.88
2023-06-30T11:31:51.627Z,12.76
2023-06-30T11:32:51.617Z,12.77
2023-06-30T11:33:51.632Z,12.77
2023-06-30T11:34:51.616Z,13.60
2023-06-30T11:35:51.603Z,13.69
2023-06-30T11:36:51.594Z,14.48
2023-06-30T11:37:51.608Z,15.80
2023-06-30T11:38:51.595Z,16.50
2023-06-30T11:39:51.576Z,16.23
2023-06-30T11:40:51.567Z,16.23
2023-06-30T11:41:51.552Z,16.20
2023-06-30T11:42:51.572Z,16.27
2023-06-30T11:43:51.541Z,16.31
2023-06-30T11:44:51.561Z,15.68
2023-06-30T11:45:51.544Z,15.26
2023-06-30T11:46:53.478Z,15.83
2023-06-30T11:47:51.563Z,14.99
2023-06-30T11:48:51.528Z,14.74
2023-06-30T11:49:51.561Z,14.41
2023-06-30T11:50:51.519Z,14.71
2023-06-30T11:51:51.526Z,13.79
2023-06-30T11:52:51.491Z,14.44
2023-06-30T11:53:51.484Z,14.08
2023-06-30T11:54:51.459Z,14.03
2023-06-30T11:55:51.500Z,13.85
2023-06-30T11:56:51.452Z,14.14
2023-06-30T11:57:51.465Z,13.83
2023-06-30T11:58:51.470Z,13.51
2023-06-30T11:59:51.447Z,13.33
2023-06-30T12:00:51.425Z,13.09
2023-06-30T12:01:51.439Z,13.34
2023-06-30T12:02:52.190Z,13.74
2023-06-30T12:03:51.495Z,14.48
2023-06-30T12:04:51.455Z,13.24
2023-06-30T12:05:51.411Z,12.92
2023-06-30T12:06:51.380Z,12.97
2023-06-30T12:07:51.380Z,12.47
2023-06-30T12:08:51.385Z,12.56
2023-06-30T12:09:51.360Z,12.98
2023-06-30T12:10:51.543Z,12.52
2023-06-30T12:11:51.345Z,12.37
2023-06-30T12:12:51.347Z,12.06
2023-06-30T12:13:51.333Z,11.93
2023-06-30T12:14:51.325Z,11.73
2023-06-30T12:15:51.537Z,11.81
2023-06-30T12:16:51.370Z,11.55
2023-06-30T12:17:51.417Z,11.62
2023-06-30T12:18:51.298Z,11.73
2023-06-30T12:19:51.298Z,11.75
2023-06-30T12:20:51.553Z,11.50
2023-06-30T12:21:51.291Z,11.14
2023-06-30T12:22:51.284Z,11.28
2023-06-30T12:23:51.275Z,11.21
2023-06-30T12:24:51.277Z,10.32
2023-06-30T12:25:51.270Z,10.66
2023-06-30T12:26:51.241Z,10.53
2023-06-30T12:27:51.228Z,10.69
2023-06-30T12:28:51.239Z,10.28
2023-06-30T12:29:51.232Z,10.16
2023-06-30T12:30:51.231Z,10.35
2023-06-30T12:31:51.242Z,9.87
2023-06-30T12:32:51.246Z,9.89
2023-06-30T12:33:51.190Z,9.50
2023-06-30T12:34:51.195Z,9.63
2023-06-30T12:35:51.192Z,9.73
2023-06-30T12:36:51.184Z,9.39
2023-06-30T12:37:51.192Z,9.15
2023-06-30T12:38:51.185Z,8.91
2023-06-30T12:39:51.186Z,8.37
2023-06-30T12:40:51.159Z,8.34
2023-06-30T12:41:51.208Z,8.18
2023-06-30T12:42:51.129Z,7.99
2023-06-30T12:43:51.404Z,7.89
2023-06-30T12:44:51.122Z,8.12
2023-06-30T12:45:51.152Z,7.91
2023-06-30T12:46:51.120Z,7.95
2023-06-30T12:47:51.214Z,7.90
2023-06-30T12:48:51.087Z,7.45
2023-06-30T12:49:51.102Z,7.23
2023-06-30T12:50:51.130Z,7.07
2023-06-30T12:51:51.071Z,7.12
2023-06-30T12:52:51.090Z,7.25
2023-06-30T12:53:51.059Z,7.19
2023-06-30T12:54:51.078Z,7.24
2023-06-30T12:55:51.088Z,6.94
2023-06-30T12:56:51.034Z,6.72
2023-06-30T12:57:51.039Z,6.67
2023-06-30T12:58:51.032Z,6.67
2023-06-30T12:59:51.043Z,6.60
2023-06-30T13:00:51.037Z,6.46